createdAt,value
2022-11-06T00:00:08.100Z,13.73
2022-11-06T00:05:50.059Z,14.23
2022-11-06T00:10:54.205Z,15.77
2022-11-06T00:16:03.735Z,15.25
2022-11-06T00:21:09.081Z,15.07
2022-11-06T00:26:16.001Z,13.98
2022-11-06T00:31:23.139Z,15.98
2022-11-06T00:36:30.394Z,15.57
2022-11-06T00:41:34.396Z,15.75
2022-11-06T00:46:39.867Z,15.25
2022-11-06T00:51:44.140Z,16.38
2022-11-06T00:56:48.211Z,15.73
2022-11-06T01:01:53.567Z,15.63
2022-11-06T01:06:58.201Z,14.82
2022-11-06T01:12:17.668Z,14.48
2022-11-06T01:17:22.909Z,14.85
2022-11-06T01:22:27.080Z,15.05
2022-11-06T01:27:31.176Z,16.20
2022-11-06T01:32:37.028Z,16.58
2022-11-06T01:42:44.505Z,14.93
2022-11-06T01:47:50.070Z,15.88
2022-11-06T01:52:54.170Z,15.77
2022-11-06T01:57:59.162Z,16.38
2022-11-06T02:03:05.401Z,15.37
2022-11-06T02:08:12.293Z,16.42
2022-11-06T02:13:23.678Z,14.77
2022-11-06T02:18:49.399Z,16.48
2022-11-06T02:24:19.962Z,14.70
2022-11-06T02:29:30.735Z,16.00
2022-11-06T02:34:38.656Z,17.08
2022-11-06T02:39:46.886Z,17.48
2022-11-06T02:44:56.288Z,15.13
2022-11-06T02:50:05.896Z,14.93
2022-11-06T02:55:15.354Z,16.77
2022-11-06T03:00:22.215Z,14.02
2022-11-06T03:05:31.942Z,13.23
2022-11-06T03:10:43.763Z,13.45
2022-11-06T03:16:01.747Z,13.48
2022-11-06T03:21:14.624Z,11.77
2022-11-06T03:26:23.062Z,12.48
2022-11-06T03:31:32.610Z,12.38
2022-11-06T03:36:42.138Z,13.05
2022-11-06T03:41:51.198Z,13.63
2022-11-06T03:47:03.273Z,14.80
2022-11-06T03:52:12.668Z,12.57
2022-11-06T03:57:22.794Z,14.23
2022-11-06T04:02:31.623Z,13.00
2022-11-06T04:07:41.093Z,12.32
2022-11-06T04:13:07.035Z,11.10
2022-11-06T04:18:18.307Z,8.80
2022-11-06T04:23:37.672Z,10.85
2022-11-06T04:28:50.377Z,8.80
2022-11-06T04:34:00.490Z,8.05
2022-11-06T04:39:13.183Z,8.65
2022-11-06T04:44:25.076Z,8.55
2022-11-06T04:49:33.673Z,9.48
2022-11-06T04:54:37.882Z,9.20
2022-11-06T04:59:41.848Z,8.05
2022-11-06T05:04:47.021Z,8.65
2022-11-06T05:09:52.009Z,7.20
2022-11-06T05:14:55.804Z,8.10
2022-11-06T05:20:01.192Z,7.95
2022-11-06T05:25:05.474Z,7.78
2022-11-06T05:30:10.912Z,9.93
2022-11-06T05:35:16.468Z,8.43
2022-11-06T05:40:20.428Z,8.50
2022-11-06T05:45:24.366Z,7.43
2022-11-06T05:50:29.773Z,7.28
2022-11-06T05:55:40.818Z,8.07
2022-11-06T06:00:44.696Z,9.75
2022-11-06T06:05:50.359Z,8.18
2022-11-06T06:10:54.369Z,8.43
2022-11-06T06:16:02.621Z,7.57
2022-11-06T06:21:08.026Z,10.13
2022-11-06T06:26:12.127Z,9.23
2022-11-06T06:31:16.247Z,9.02
2022-11-06T06:36:21.637Z,8.00
2022-11-06T06:41:25.877Z,10.10
2022-11-06T06:46:29.785Z,11.05
2022-11-06T06:51:35.295Z,10.13
2022-11-06T06:56:39.229Z,10.88
2022-11-06T07:01:43.207Z,10.40
2022-11-06T07:06:48.648Z,9.88
2022-11-06T07:11:52.625Z,9.82
2022-11-06T07:16:56.521Z,8.38
2022-11-06T07:22:01.809Z,9.98
2022-11-06T07:27:05.914Z,9.95
2022-11-06T07:32:10.341Z,11.38
2022-11-06T07:37:15.899Z,8.68
2022-11-06T07:42:19.810Z,9.88
2022-11-06T07:47:42.535Z,9.80
2022-11-06T07:52:47.817Z,9.73
2022-11-06T07:57:51.738Z,10.15
2022-11-06T08:02:56.506Z,9.07
2022-11-06T08:08:01.753Z,11.20
2022-11-06T08:13:05.655Z,11.50
2022-11-06T08:18:10.726Z,10.55
2022-11-06T08:23:16.318Z,14.07
2022-11-06T08:28:20.143Z,11.07
2022-11-06T08:33:25.520Z,13.10
2022-11-06T08:38:30.819Z,10.48
2022-11-06T08:43:34.971Z,10.03
2022-11-06T08:48:39.194Z,11.50
2022-11-06T08:53:44.585Z,11.40
2022-11-06T08:58:52.926Z,12.00
2022-11-06T09:03:59.370Z,9.93
2022-11-06T09:09:04.842Z,10.20
2022-11-06T09:14:08.695Z,11.07
2022-11-06T09:19:12.496Z,9.90
2022-11-06T09:24:24.019Z,12.23
2022-11-06T09:29:44.116Z,9.25
2022-11-06T09:34:48.012Z,9.65
2022-11-06T09:39:53.269Z,11.60
2022-11-06T09:45:04.726Z,10.35
2022-11-06T09:50:17.095Z,10.05
2022-11-06T09:55:26.575Z,10.95
2022-11-06T10:00:31.466Z,10.45
2022-11-06T10:05:38.114Z,11.60
2022-11-06T10:10:51.289Z,10.88
2022-11-06T10:16:03.471Z,10.30
2022-11-06T10:21:12.745Z,10.70
2022-11-06T10:26:19.785Z,11.25
2022-11-06T10:31:33.273Z,8.95
2022-11-06T10:36:48.686Z,8.82
2022-11-06T10:42:03.805Z,8.85
2022-11-06T10:47:17.148Z,8.68
2022-11-06T10:52:34.814Z,9.45
2022-11-06T10:57:47.921Z,11.13
2022-11-06T11:02:56.910Z,8.73
2022-11-06T11:08:00.729Z,8.32
2022-11-06T11:13:08.735Z,8.52
2022-11-06T11:18:23.406Z,7.97
2022-11-06T11:23:28.405Z,8.75
2022-11-06T11:28:35.525Z,8.73
2022-11-06T11:33:41.129Z,10.02
2022-11-06T11:38:46.071Z,9.18
2022-11-06T11:44:05.186Z,8.75
2022-11-06T11:49:27.408Z,8.15
2022-11-06T11:54:34.583Z,8.10
2022-11-06T11:59:45.847Z,8.90
2022-11-06T12:04:53.637Z,7.75
2022-11-06T12:09:59.959Z,8.82
2022-11-06T12:15:17.894Z,7.20
2022-11-06T12:20:27.449Z,8.23
2022-11-06T12:25:37.228Z,7.80
2022-11-06T12:30:45.056Z,9.27
2022-11-06T12:35:53.528Z,7.82
2022-11-06T12:41:03.788Z,9.38
2022-11-06T12:46:22.113Z,9.45
2022-11-06T12:51:36.965Z,9.70
2022-11-06T12:56:51.901Z,11.00
2022-11-06T13:02:12.114Z,9.77
2022-11-06T13:07:38.234Z,8.75
2022-11-06T13:17:57.083Z,7.82
2022-11-06T13:23:09.308Z,7.00
2022-11-06T13:28:26.276Z,7.68
2022-11-06T13:33:35.952Z,9.15
2022-11-06T13:38:46.875Z,9.23
2022-11-06T13:43:57.094Z,10.35
2022-11-06T13:49:14.718Z,10.18
2022-11-06T13:54:40.124Z,9.02
2022-11-06T14:00:14.266Z,9.07
2022-11-06T14:05:43.834Z,11.57
2022-11-06T14:10:54.832Z,10.43
2022-11-06T14:16:25.295Z,10.40
2022-11-06T14:21:46.084Z,10.55
2022-11-06T14:26:51.317Z,11.27
2022-11-06T14:32:02.072Z,12.23
2022-11-06T14:37:38.484Z,9.98
2022-11-06T14:47:54.676Z,12.50
2022-11-06T14:53:02.534Z,10.98
2022-11-06T14:58:22.489Z,11.75
2022-11-06T15:03:32.515Z,11.73
2022-11-06T15:09:01.020Z,11.50
2022-11-06T15:14:38.059Z,12.80
2022-11-06T15:19:46.763Z,11.88
2022-11-06T15:24:55.896Z,12.50
2022-11-06T15:30:04.858Z,14.00
2022-11-06T15:35:17.047Z,12.25
2022-11-06T15:40:27.210Z,13.52
2022-11-06T15:45:31.216Z,14.35
2022-11-06T15:50:37.722Z,16.05
2022-11-06T15:55:45.074Z,15.43
2022-11-06T16:00:50.219Z,16.85
2022-11-06T16:05:58.670Z,18.85
2022-11-06T16:11:07.003Z,18.88
2022-11-06T16:16:34.121Z,18.70
2022-11-06T16:21:39.446Z,19.77
2022-11-06T16:26:48.729Z,21.95
2022-11-06T16:32:01.320Z,18.33
2022-11-06T16:37:08.744Z,16.88
2022-11-06T16:42:35.792Z,14.32
2022-11-06T16:47:40.652Z,16.60
2022-11-06T16:52:54.772Z,16.77
2022-11-06T16:58:01.421Z,15.77
2022-11-06T17:03:09.718Z,16.42
2022-11-06T17:08:24.930Z,17.08
2022-11-06T17:13:30.238Z,20.47
2022-11-06T17:18:37.031Z,19.98
2022-11-06T17:23:42.258Z,20.63
2022-11-06T17:28:46.180Z,18.98
2022-11-06T17:33:49.939Z,19.75
2022-11-06T17:38:56.361Z,18.13
2022-11-06T17:44:04.234Z,17.40
2022-11-06T17:49:15.794Z,14.40
2022-11-06T17:54:25.448Z,16.25
2022-11-06T17:59:29.658Z,18.05
2022-11-06T18:04:34.373Z,15.98
2022-11-06T18:09:39.706Z,18.30
2022-11-06T18:14:43.467Z,18.53
2022-11-06T18:19:47.529Z,18.02
2022-11-06T18:24:53.415Z,17.92
2022-11-06T18:29:57.771Z,17.88
2022-11-06T18:35:05.008Z,17.42
2022-11-06T18:40:12.135Z,20.60
2022-11-06T18:45:16.313Z,19.52
2022-11-06T18:50:20.310Z,18.73
2022-11-06T18:55:25.725Z,15.93
2022-11-06T19:00:29.823Z,16.85
2022-11-06T19:05:34.408Z,19.17
2022-11-06T19:10:39.968Z,18.88
2022-11-06T19:15:44.229Z,17.77
2022-11-06T19:20:47.978Z,19.85
2022-11-06T19:26:04.509Z,20.52
2022-11-06T19:31:17.471Z,21.93
2022-11-06T19:36:21.340Z,20.30
2022-11-06T19:41:26.989Z,18.80
2022-11-06T19:56:30.508Z,23.15
2022-11-06T20:01:34.860Z,26.20
2022-11-06T20:06:40.050Z,23.00
2022-11-06T20:11:45.611Z,22.33
2022-11-06T20:16:49.881Z,24.08
2022-11-06T20:21:53.663Z,22.83
2022-11-06T20:27:01.015Z,21.67
2022-11-06T20:32:05.066Z,23.40
2022-11-06T20:37:09.203Z,22.13
2022-11-06T20:42:14.406Z,20.58
2022-11-06T20:47:18.464Z,21.85
2022-11-06T20:52:22.574Z,25.60
2022-11-06T20:57:28.178Z,24.27
2022-11-06T21:02:32.193Z,22.90
2022-11-06T21:07:36.375Z,25.35
2022-11-06T21:12:41.940Z,24.85
2022-11-06T21:17:46.019Z,28.98
2022-11-06T21:22:50.155Z,23.15
2022-11-06T21:27:55.618Z,21.45
2022-11-06T21:32:59.747Z,23.92
2022-11-06T21:38:03.734Z,22.02
2022-11-06T21:43:09.156Z,23.13
2022-11-06T21:48:40.727Z,21.63
2022-11-06T21:53:55.890Z,18.95
2022-11-06T21:59:03.131Z,20.40
2022-11-06T22:04:07.990Z,19.25
2022-11-06T22:09:13.433Z,17.52
2022-11-06T22:14:19.035Z,18.83
2022-11-06T22:19:23.090Z,14.80
2022-11-06T22:24:28.916Z,14.57
2022-11-06T22:29:34.764Z,11.88
2022-11-06T22:34:38.716Z,11.27
2022-11-06T22:39:42.672Z,11.02
2022-11-06T22:44:48.140Z,10.30
2022-11-06T22:49:52.337Z,8.98
2022-11-06T22:54:56.197Z,8.57
2022-11-06T23:00:01.524Z,8.75
2022-11-06T23:05:05.827Z,7.75
2022-11-06T23:10:10.663Z,9.13
2022-11-06T23:15:16.089Z,8.23
2022-11-06T23:20:20.670Z,8.77
2022-11-06T23:25:24.607Z,10.45
2022-11-06T23:30:31.113Z,9.30
2022-11-06T23:35:35.033Z,9.35
2022-11-06T23:40:38.851Z,9.45
2022-11-06T23:45:50.026Z,8.93
2022-11-06T23:50:53.874Z,8.60
2022-11-06T23:55:57.686Z,9.20
